This is the latest recevied weather packets stored in our database for station/object KJ6BBX. If no packets are shown the sender has not sent any weather packets the latest 10 day(s).
| Time | Temp. | Humidity | Pressure | Rain* | Wind** | Luminosity | Snow |
|---|---|---|---|---|---|---|---|
| 1777577714 | 23.89° C | 53% | 1003.9 hPa | 0 mm | - | 599 W/m² | - |
| 1777576814 | 23.89° C | 55% | 1003.7 hPa | 0 mm | - | 580 W/m² | - |
| 1777575913 | 24.44° C | 51% | 1003.9 hPa | 0 mm | - | 608 W/m² | - |
| 1777575014 | 23.89° C | 53% | 1004 hPa | 0 mm | - | 601 W/m² | - |
| 1777574114 | 23.33° C | 57% | 1004.4 hPa | 0 mm | - | 535 W/m² | - |
| 1777573214 | 21.67° C | 59% | 1004.6 hPa | 0 mm | - | 556 W/m² | - |
| 1777572314 | 22.22° C | 58% | 1004.8 hPa | 0 mm | - | 509 W/m² | - |
| 1777571414 | 21.11° C | 60% | 1004.6 hPa | 0 mm | - | 509 W/m² | - |
| 1777570514 | 20° C | 63% | 1005.1 hPa | 0 mm | - | 540 W/m² | - |
| 1777569614 | 19.44° C | 65% | 1005 hPa | 0 mm | - | 524 W/m² | - |
| 1777568714 | 20° C | 65% | 1005 hPa | 0 mm | - | 491 W/m² | - |
| 1777567815 | 18.89° C | 67% | 1005 hPa | 0 mm | - | 484 W/m² | - |
| 1777566914 | 17.78° C | 70% | 1004.9 hPa | 0 mm | - | 453 W/m² | - |
| 1777566015 | 17.22° C | 73% | 1005.3 hPa | 0 mm | - | 267 W/m² | - |
| 1777565115 | 17.22° C | 74% | 1005.5 hPa | 0 mm | - | 385 W/m² | - |
| 1777564214 | 15.56° C | 78% | 1005.6 hPa | 0 mm | - | 278 W/m² | - |
| 1777563314 | 15° C | 80% | 1005.7 hPa | 0 mm | - | 124 W/m² | - |
| 1777562413 | 15° C | 81% | 1005.5 hPa | 0 mm | - | 116 W/m² | - |
| 1777561514 | 15° C | 83% | 1005.5 hPa | 0 mm | - | 98 W/m² | - |
| 1777560614 | 14.44° C | 85% | 1005.5 hPa | 0 mm | - | 68 W/m² | - |
| 1777559714 | 13.89° C | 87% | 1005.4 hPa | 0 mm | - | 63 W/m² | - |
| 1777558814 | 13.89° C | 89% | 1005.5 hPa | 0 mm | - | 44 W/m² | - |
| 1777557915 | 13.33° C | 90% | 1005.5 hPa | 0 mm | - | 35 W/m² | - |
| 1777557015 | 13.33° C | 91% | 1005.4 hPa | 0 mm | - | 19 W/m² | - |
| 1777556114 | 13.33° C | 92% | 1005.2 hPa | 0 mm | - | 11 W/m² | - |
* Rain since midnight (hover to see other rain measurements)
** Current wind speed in m/s (hover to see current wind gust speed)